Flight Track Log - Related Links

Times and Time Zones

All times are in EDT time to prevent confusion due to time zone crossing. See the WAV761 flight status page for this flight to view local times or setup timezone preferences in your user account.

Time Position Orientation Groundspeed Altitude Reporting Facility
EDT Latitude Longitude Course Direction KTS MPH feet Rate Location/Type
Tue 10:15:03 PM 65.1000 -151.5167 140° Southeast 170 196 6,100  Level Anchorage Center
Tue 10:16:03 PM 65.0667 -151.4500 140° Southeast 140 161 7,000 450 Climbing Anchorage Center
Tue 10:17:03 PM 65.0667 -151.3333 90° East 160 184 7,000  Level Anchorage Center
Tue 10:18:03 PM 65.0667 -151.2167 90° East 180 207 7,000 250 Level Anchorage Center
Tue 10:19:03 PM 65.0667 -151.1000 90° East 190 219 7,500 600 Climbing Anchorage Center
Tue 10:20:03 PM 65.0500 -150.9833 109° East 170 196 8,200 750 Climbing Anchorage Center
Tue 10:21:03 PM 65.0333 -150.8833 112° Southeast 160 184 9,000 397 Climbing Anchorage Center
Tue 10:22:04 PM 65.0333 -150.7667 90° East 200 230 9,000  Level Anchorage Center
Tue 10:23:03 PM 65.0167 -150.6333 106° East 190 219 9,000  Level Anchorage Center
Tue 10:24:04 PM 65.0167 -150.5000 90° East 200 230 9,000  Level Anchorage Center
Tue 10:25:04 PM 65.0000 -150.3667 106° East 210 242 9,000  Level Anchorage Center
Tue 10:26:04 PM 65.0000 -150.2333 90° East 210 242 9,000  Level Anchorage Center
Tue 10:27:05 PM 64.9833 -150.1000 106° East 200 230 9,000  Level Anchorage Center
Tue 10:28:04 PM 64.9667 -149.9667 106° East 200 230 9,000  Level Anchorage Center
Tue 10:29:05 PM 64.9667 -149.8333 90° East 210 242 9,000  Level Anchorage Center
Tue 10:30:05 PM 64.9500 -149.7000 106° East 200 230 9,000  Level Anchorage Center
Tue 10:31:05 PM 64.9500 -149.5667 90° East 210 242 9,000  Level Anchorage Center
Tue 10:32:05 PM 64.9333 -149.4333 106° East 210 242 9,000  Level Anchorage Center
Tue 10:34:00 PM 64.9334 -149.2261 90° East  Level FlightAware Approximate
Tue 10:41:00 PM 64.8626 -148.4861 101° East  Level FlightAware Approximate
Tue 10:42:00 PM 64.8534 -148.3804 102° East  Level FlightAware Approximate
Tue 10:43:00 PM 64.8442 -148.2749 102° East  Level FlightAware Approximate
Tue 10:44:00 PM 64.8348 -148.1694 102° East  Level FlightAware Approximate
Tue 10:45:00 PM 64.8254 -148.0640 102° East  Level FlightAware Approximate
Tue 10:46:00 PM 64.8156 -147.9589 109° East  Level FlightAware Approximate
Tue 10:47:00 PM 64.8010 -147.8569 109° East  Level FlightAware Approximate
Tue 10:48:00 PM 64.8000 -147.8500 109° East  Level FlightAware Approximate
Tue 10:49:00 PM 64.8151 -147.8564 109° East  Level Estimated
Tue 10:50:00 PM 64.8151 -147.8564 109° East  Level Estimated
Tue 10:51:00 PM 64.8151 -147.8564 109° East  Level Estimated
Tue 10:52:00 PM 64.8151 -147.8564 109° East  Level Estimated
Tue 10:53:00 PM 64.8151 -147.8564 109° East  Level Estimated
Tue 10:54:00 PM 64.8151 -147.8564 109° East  Level Estimated
Tue 10:55:00 PM 64.8151 -147.8564 109° East  Level Estimated
Tue 10:56:00 PM 64.8151 -147.8564 109° East  Level Estimated
Tue 10:57:00 PM 64.8151 -147.8564 109° East  Level Estimated
Tue 10:58:00 PM 64.8151 -147.8564 109° East  Level Estimated
Tue 10:59:00 PM 64.8151 -147.8564 109° East  Level Estimated
Tue 11:00:00 PM 64.8151 -147.8564 109° East  Level Estimated
Tue 11:01:00 PM 64.8151 -147.8564 109° East  Level Estimated
Tue 11:02:00 PM 64.8151 -147.8564 109° East  Level Estimated

Login

Don't have an account? Register now (free) for customized features, flight alerts, and more!